sensor_id;sensor_type;location;lat;lon;timestamp;P1;durP1;ratioP1;P2;durP2;ratioP2
32946;SDS011;54465;51.230;22.504;2023-04-25T00:00:05;6.32;;;5.38;;
32946;SDS011;54465;51.230;22.504;2023-04-25T00:10:15;5.57;;;5.00;;
32946;SDS011;54465;51.230;22.504;2023-04-25T00:15:15;7.43;;;4.88;;
32946;SDS011;54465;51.230;22.504;2023-04-25T00:20:16;8.23;;;5.75;;
32946;SDS011;54465;51.230;22.504;2023-04-25T00:25:16;7.25;;;6.25;;
32946;SDS011;54465;51.230;22.504;2023-04-25T00:30:17;7.65;;;6.22;;
32946;SDS011;54465;51.230;22.504;2023-04-25T00:35:17;7.13;;;6.10;;
32946;SDS011;54465;51.230;22.504;2023-04-25T00:40:18;6.88;;;6.15;;
32946;SDS011;54465;51.230;22.504;2023-04-25T00:45:19;8.70;;;6.40;;
32946;SDS011;54465;51.230;22.504;2023-04-25T00:50:19;7.30;;;6.35;;
32946;SDS011;54465;51.230;22.504;2023-04-25T00:55:20;6.40;;;5.78;;
32946;SDS011;54465;51.230;22.504;2023-04-25T01:00:20;10.85;;;6.65;;
32946;SDS011;54465;51.230;22.504;2023-04-25T01:05:22;8.43;;;6.00;;
32946;SDS011;54465;51.230;22.504;2023-04-25T01:10:22;6.97;;;5.82;;
32946;SDS011;54465;51.230;22.504;2023-04-25T01:15:23;7.53;;;5.32;;
32946;SDS011;54465;51.230;22.504;2023-04-25T01:20:24;6.63;;;5.53;;
32946;SDS011;54465;51.230;22.504;2023-04-25T01:25:25;6.70;;;5.63;;
32946;SDS011;54465;51.230;22.504;2023-04-25T01:30:26;8.23;;;5.78;;
32946;SDS011;54465;51.230;22.504;2023-04-25T01:35:27;5.97;;;4.80;;
32946;SDS011;54465;51.230;22.504;2023-04-25T01:40:28;7.13;;;5.75;;
32946;SDS011;54465;51.230;22.504;2023-04-25T01:45:28;6.57;;;5.90;;
32946;SDS011;54465;51.230;22.504;2023-04-25T01:50:29;10.10;;;5.60;;
32946;SDS011;54465;51.230;22.504;2023-04-25T01:55:30;7.63;;;5.78;;
32946;SDS011;54465;51.230;22.504;2023-04-25T02:00:35;6.90;;;5.50;;
32946;SDS011;54465;51.230;22.504;2023-04-25T02:05:39;5.93;;;5.30;;
32946;SDS011;54465;51.230;22.504;2023-04-25T02:10:42;6.45;;;5.28;;
32946;SDS011;54465;51.230;22.504;2023-04-25T02:15:52;8.10;;;5.70;;
32946;SDS011;54465;51.230;22.504;2023-04-25T02:20:53;6.60;;;5.22;;
32946;SDS011;54465;51.230;22.504;2023-04-25T02:25:54;5.93;;;5.13;;
32946;SDS011;54465;51.230;22.504;2023-04-25T02:30:57;4.70;;;4.25;;
32946;SDS011;54465;51.230;22.504;2023-04-25T02:35:58;6.50;;;4.72;;
32946;SDS011;54465;51.230;22.504;2023-04-25T02:40:59;4.90;;;4.35;;
32946;SDS011;54465;51.230;22.504;2023-04-25T02:46:00;4.90;;;4.40;;
32946;SDS011;54465;51.230;22.504;2023-04-25T02:51:00;5.13;;;4.60;;
32946;SDS011;54465;51.230;22.504;2023-04-25T02:56:01;5.47;;;4.30;;
32946;SDS011;54465;51.230;22.504;2023-04-25T03:01:02;5.60;;;4.75;;
32946;SDS011;54465;51.230;22.504;2023-04-25T03:06:02;6.15;;;5.00;;
32946;SDS011;54465;51.230;22.504;2023-04-25T03:11:06;5.38;;;4.88;;
32946;SDS011;54465;51.230;22.504;2023-04-25T03:16:06;7.93;;;6.15;;
32946;SDS011;54465;51.230;22.504;2023-04-25T03:21:08;6.57;;;5.82;;
32946;SDS011;54465;51.230;22.504;2023-04-25T03:26:08;6.30;;;4.80;;
32946;SDS011;54465;51.230;22.504;2023-04-25T03:31:09;6.57;;;5.43;;
32946;SDS011;54465;51.230;22.504;2023-04-25T03:36:10;5.65;;;4.90;;
32946;SDS011;54465;51.230;22.504;2023-04-25T03:41:11;7.65;;;5.50;;
32946;SDS011;54465;51.230;22.504;2023-04-25T03:46:16;7.55;;;6.20;;
32946;SDS011;54465;51.230;22.504;2023-04-25T03:51:17;7.50;;;5.45;;
32946;SDS011;54465;51.230;22.504;2023-04-25T03:56:19;7.72;;;5.63;;
32946;SDS011;54465;51.230;22.504;2023-04-25T04:01:22;6.10;;;5.35;;
32946;SDS011;54465;51.230;22.504;2023-04-25T04:06:22;6.53;;;5.63;;
32946;SDS011;54465;51.230;22.504;2023-04-25T04:11:28;7.70;;;6.00;;
32946;SDS011;54465;51.230;22.504;2023-04-25T04:16:30;8.02;;;6.15;;
32946;SDS011;54465;51.230;22.504;2023-04-25T04:21:31;6.88;;;5.80;;
32946;SDS011;54465;51.230;22.504;2023-04-25T04:26:34;7.05;;;5.68;;
32946;SDS011;54465;51.230;22.504;2023-04-25T04:31:57;6.90;;;6.18;;
32946;SDS011;54465;51.230;22.504;2023-04-25T04:36:58;9.02;;;5.82;;
32946;SDS011;54465;51.230;22.504;2023-04-25T04:42:00;8.48;;;5.78;;
32946;SDS011;54465;51.230;22.504;2023-04-25T04:47:31;6.40;;;5.60;;
32946;SDS011;54465;51.230;22.504;2023-04-25T04:52:51;7.85;;;5.85;;
32946;SDS011;54465;51.230;22.504;2023-04-25T04:58:11;7.43;;;6.25;;
32946;SDS011;54465;51.230;22.504;2023-04-25T05:03:21;7.18;;;5.80;;
32946;SDS011;54465;51.230;22.504;2023-04-25T05:08:36;10.80;;;6.90;;
32946;SDS011;54465;51.230;22.504;2023-04-25T05:13:57;7.15;;;6.45;;
32946;SDS011;54465;51.230;22.504;2023-04-25T05:19:16;6.32;;;5.65;;
32946;SDS011;54465;51.230;22.504;2023-04-25T05:30:07;9.98;;;7.32;;
32946;SDS011;54465;51.230;22.504;2023-04-25T05:35:31;8.02;;;6.88;;
32946;SDS011;54465;51.230;22.504;2023-04-25T05:40:32;8.52;;;6.57;;
32946;SDS011;54465;51.230;22.504;2023-04-25T05:45:46;10.77;;;7.75;;
32946;SDS011;54465;51.230;22.504;2023-04-25T05:51:15;9.23;;;6.95;;
32946;SDS011;54465;51.230;22.504;2023-04-25T05:56:39;9.77;;;6.80;;
32946;SDS011;54465;51.230;22.504;2023-04-25T06:01:41;9.13;;;6.75;;
32946;SDS011;54465;51.230;22.504;2023-04-25T06:06:42;10.82;;;6.68;;
32946;SDS011;54465;51.230;22.504;2023-04-25T06:11:42;8.60;;;7.05;;
32946;SDS011;54465;51.230;22.504;2023-04-25T06:16:43;8.38;;;7.20;;
32946;SDS011;54465;51.230;22.504;2023-04-25T06:21:44;8.20;;;6.68;;
32946;SDS011;54465;51.230;22.504;2023-04-25T06:26:45;10.63;;;7.07;;
32946;SDS011;54465;51.230;22.504;2023-04-25T06:31:48;11.45;;;7.75;;
32946;SDS011;54465;51.230;22.504;2023-04-25T06:36:49;10.27;;;7.35;;
32946;SDS011;54465;51.230;22.504;2023-04-25T06:41:50;18.25;;;7.15;;
32946;SDS011;54465;51.230;22.504;2023-04-25T06:47:09;13.98;;;7.65;;
32946;SDS011;54465;51.230;22.504;2023-04-25T06:52:10;11.55;;;7.47;;
32946;SDS011;54465;51.230;22.504;2023-04-25T06:57:12;14.45;;;7.85;;
32946;SDS011;54465;51.230;22.504;2023-04-25T07:02:13;9.43;;;7.05;;
32946;SDS011;54465;51.230;22.504;2023-04-25T07:07:14;12.43;;;7.78;;
32946;SDS011;54465;51.230;22.504;2023-04-25T07:12:23;8.45;;;6.93;;
32946;SDS011;54465;51.230;22.504;2023-04-25T07:17:24;9.45;;;6.93;;
32946;SDS011;54465;51.230;22.504;2023-04-25T07:22:25;9.48;;;7.22;;
32946;SDS011;54465;51.230;22.504;2023-04-25T07:27:26;7.88;;;6.53;;
32946;SDS011;54465;51.230;22.504;2023-04-25T07:32:36;9.18;;;6.55;;
32946;SDS011;54465;51.230;22.504;2023-04-25T07:37:37;11.25;;;8.05;;
32946;SDS011;54465;51.230;22.504;2023-04-25T07:42:44;9.95;;;6.88;;
32946;SDS011;54465;51.230;22.504;2023-04-25T07:47:47;9.27;;;6.20;;
32946;SDS011;54465;51.230;22.504;2023-04-25T07:52:47;9.68;;;7.28;;
32946;SDS011;54465;51.230;22.504;2023-04-25T07:57:58;9.43;;;6.20;;
32946;SDS011;54465;51.230;22.504;2023-04-25T08:03:01;8.52;;;5.32;;
32946;SDS011;54465;51.230;22.504;2023-04-25T08:08:03;6.80;;;4.35;;
32946;SDS011;54465;51.230;22.504;2023-04-25T08:13:07;4.22;;;3.60;;
32946;SDS011;54465;51.230;22.504;2023-04-25T08:18:08;3.20;;;2.90;;
32946;SDS011;54465;51.230;22.504;2023-04-25T08:23:09;4.03;;;3.65;;
32946;SDS011;54465;51.230;22.504;2023-04-25T08:28:31;3.45;;;2.97;;
32946;SDS011;54465;51.230;22.504;2023-04-25T08:33:35;2.42;;;2.22;;
32946;SDS011;54465;51.230;22.504;2023-04-25T08:38:46;2.15;;;1.95;;
32946;SDS011;54465;51.230;22.504;2023-04-25T08:43:48;2.45;;;2.25;;
32946;SDS011;54465;51.230;22.504;2023-04-25T08:48:49;2.42;;;1.92;;
32946;SDS011;54465;51.230;22.504;2023-04-25T08:53:51;2.60;;;2.20;;
32946;SDS011;54465;51.230;22.504;2023-04-25T08:58:53;2.70;;;2.00;;
32946;SDS011;54465;51.230;22.504;2023-04-25T09:03:55;2.42;;;1.95;;
32946;SDS011;54465;51.230;22.504;2023-04-25T09:09:04;2.92;;;2.20;;
32946;SDS011;54465;51.230;22.504;2023-04-25T09:19:41;2.53;;;2.33;;
32946;SDS011;54465;51.230;22.504;2023-04-25T09:24:50;4.05;;;2.35;;
32946;SDS011;54465;51.230;22.504;2023-04-25T09:29:58;2.80;;;2.22;;
32946;SDS011;54465;51.230;22.504;2023-04-25T09:35:08;2.55;;;2.33;;
32946;SDS011;54465;51.230;22.504;2023-04-25T09:40:09;2.95;;;2.53;;
32946;SDS011;54465;51.230;22.504;2023-04-25T09:45:23;2.92;;;2.70;;
32946;SDS011;54465;51.230;22.504;2023-04-25T09:50:24;4.75;;;3.05;;
32946;SDS011;54465;51.230;22.504;2023-04-25T09:55:31;3.00;;;2.75;;
32946;SDS011;54465;51.230;22.504;2023-04-25T10:00:33;3.08;;;2.65;;
32946;SDS011;54465;51.230;22.504;2023-04-25T10:05:46;5.50;;;3.47;;
32946;SDS011;54465;51.230;22.504;2023-04-25T10:10:51;4.88;;;3.55;;
32946;SDS011;54465;51.230;22.504;2023-04-25T10:15:51;4.55;;;3.63;;
32946;SDS011;54465;51.230;22.504;2023-04-25T10:20:53;4.03;;;3.63;;
32946;SDS011;54465;51.230;22.504;2023-04-25T10:25:58;7.03;;;3.43;;
32946;SDS011;54465;51.230;22.504;2023-04-25T10:31:00;3.85;;;3.42;;
32946;SDS011;54465;51.230;22.504;2023-04-25T10:36:23;5.18;;;4.10;;
32946;SDS011;54465;51.230;22.504;2023-04-25T10:41:24;4.30;;;3.10;;
32946;SDS011;54465;51.230;22.504;2023-04-25T10:46:27;3.85;;;3.45;;
32946;SDS011;54465;51.230;22.504;2023-04-25T10:51:32;3.88;;;3.47;;
32946;SDS011;54465;51.230;22.504;2023-04-25T10:56:38;3.92;;;3.55;;
32946;SDS011;54465;51.230;22.504;2023-04-25T11:11:55;3.28;;;2.97;;
32946;SDS011;54465;51.230;22.504;2023-04-25T11:16:56;3.78;;;3.05;;
32946;SDS011;54465;51.230;22.504;2023-04-25T11:21:58;3.13;;;2.70;;
32946;SDS011;54465;51.230;22.504;2023-04-25T11:27:00;2.70;;;2.40;;
32946;SDS011;54465;51.230;22.504;2023-04-25T11:32:04;3.60;;;2.50;;
32946;SDS011;54465;51.230;22.504;2023-04-25T11:37:05;2.63;;;2.42;;
32946;SDS011;54465;51.230;22.504;2023-04-25T11:42:08;2.70;;;1.70;;
32946;SDS011;54465;51.230;22.504;2023-04-25T11:47:08;2.20;;;2.10;;
32946;SDS011;54465;51.230;22.504;2023-04-25T11:52:09;2.97;;;2.67;;
32946;SDS011;54465;51.230;22.504;2023-04-25T11:57:11;3.20;;;2.90;;
32946;SDS011;54465;51.230;22.504;2023-04-25T12:02:23;5.07;;;1.88;;
32946;SDS011;54465;51.230;22.504;2023-04-25T12:07:28;5.93;;;2.20;;
32946;SDS011;54465;51.230;22.504;2023-04-25T12:12:33;2.83;;;2.38;;
32946;SDS011;54465;51.230;22.504;2023-04-25T12:17:35;2.67;;;2.40;;
32946;SDS011;54465;51.230;22.504;2023-04-25T12:22:37;3.15;;;2.67;;
32946;SDS011;54465;51.230;22.504;2023-04-25T12:27:38;3.70;;;3.33;;
32946;SDS011;54465;51.230;22.504;2023-04-25T12:32:42;4.63;;;3.58;;
32946;SDS011;54465;51.230;22.504;2023-04-25T12:37:42;4.10;;;3.70;;
32946;SDS011;54465;51.230;22.504;2023-04-25T12:42:42;3.42;;;3.13;;
32946;SDS011;54465;51.230;22.504;2023-04-25T12:47:43;4.82;;;3.70;;
32946;SDS011;54465;51.230;22.504;2023-04-25T12:52:43;4.20;;;3.80;;
32946;SDS011;54465;51.230;22.504;2023-04-25T12:57:44;4.82;;;3.35;;
32946;SDS011;54465;51.230;22.504;2023-04-25T13:02:45;4.03;;;3.63;;
32946;SDS011;54465;51.230;22.504;2023-04-25T13:07:46;4.25;;;3.85;;
32946;SDS011;54465;51.230;22.504;2023-04-25T13:12:47;4.85;;;3.80;;
32946;SDS011;54465;51.230;22.504;2023-04-25T13:17:47;4.47;;;3.90;;
32946;SDS011;54465;51.230;22.504;2023-04-25T13:22:48;4.75;;;4.20;;
32946;SDS011;54465;51.230;22.504;2023-04-25T13:27:48;6.15;;;4.25;;
32946;SDS011;54465;51.230;22.504;2023-04-25T13:32:49;5.22;;;4.72;;
32946;SDS011;54465;51.230;22.504;2023-04-25T13:37:49;6.30;;;4.63;;
32946;SDS011;54465;51.230;22.504;2023-04-25T13:42:50;5.20;;;4.70;;
32946;SDS011;54465;51.230;22.504;2023-04-25T13:47:51;5.15;;;4.65;;
32946;SDS011;54465;51.230;22.504;2023-04-25T13:52:51;5.82;;;4.60;;
32946;SDS011;54465;51.230;22.504;2023-04-25T13:57:52;5.07;;;4.30;;
32946;SDS011;54465;51.230;22.504;2023-04-25T14:02:52;5.20;;;4.70;;
32946;SDS011;54465;51.230;22.504;2023-04-25T14:07:53;5.10;;;4.53;;
32946;SDS011;54465;51.230;22.504;2023-04-25T14:12:54;6.10;;;5.28;;
32946;SDS011;54465;51.230;22.504;2023-04-25T14:17:54;7.13;;;5.43;;
32946;SDS011;54465;51.230;22.504;2023-04-25T14:22:55;6.35;;;5.65;;
32946;SDS011;54465;51.230;22.504;2023-04-25T14:27:56;6.05;;;4.95;;
32946;SDS011;54465;51.230;22.504;2023-04-25T14:32:56;6.45;;;5.45;;
32946;SDS011;54465;51.230;22.504;2023-04-25T14:37:57;6.55;;;5.45;;
32946;SDS011;54465;51.230;22.504;2023-04-25T14:42:57;9.75;;;6.70;;
32946;SDS011;54465;51.230;22.504;2023-04-25T14:47:58;8.52;;;6.53;;
32946;SDS011;54465;51.230;22.504;2023-04-25T14:52:58;8.65;;;6.63;;
32946;SDS011;54465;51.230;22.504;2023-04-25T14:58:00;7.82;;;6.78;;
32946;SDS011;54465;51.230;22.504;2023-04-25T15:03:01;7.90;;;6.25;;
32946;SDS011;54465;51.230;22.504;2023-04-25T15:08:02;7.75;;;5.72;;
32946;SDS011;54465;51.230;22.504;2023-04-25T15:13:03;8.15;;;6.43;;
32946;SDS011;54465;51.230;22.504;2023-04-25T15:18:03;6.93;;;6.22;;
32946;SDS011;54465;51.230;22.504;2023-04-25T15:23:04;7.43;;;6.32;;
32946;SDS011;54465;51.230;22.504;2023-04-25T15:28:05;8.93;;;6.63;;
32946;SDS011;54465;51.230;22.504;2023-04-25T15:33:06;9.82;;;6.47;;
32946;SDS011;54465;51.230;22.504;2023-04-25T15:38:06;10.00;;;6.88;;
32946;SDS011;54465;51.230;22.504;2023-04-25T15:43:08;9.40;;;6.88;;
32946;SDS011;54465;51.230;22.504;2023-04-25T15:48:14;9.38;;;7.32;;
32946;SDS011;54465;51.230;22.504;2023-04-25T15:53:15;9.38;;;8.38;;
32946;SDS011;54465;51.230;22.504;2023-04-25T15:58:16;11.48;;;8.70;;
32946;SDS011;54465;51.230;22.504;2023-04-25T16:03:16;10.05;;;7.95;;
32946;SDS011;54465;51.230;22.504;2023-04-25T16:08:17;9.68;;;7.47;;
32946;SDS011;54465;51.230;22.504;2023-04-25T16:13:17;10.50;;;7.75;;
32946;SDS011;54465;51.230;22.504;2023-04-25T16:18:18;9.50;;;7.97;;
32946;SDS011;54465;51.230;22.504;2023-04-25T16:23:18;9.52;;;7.60;;
32946;SDS011;54465;51.230;22.504;2023-04-25T16:28:19;10.07;;;7.75;;
32946;SDS011;54465;51.230;22.504;2023-04-25T16:33:19;9.10;;;6.72;;
32946;SDS011;54465;51.230;22.504;2023-04-25T16:38:20;10.00;;;7.07;;
32946;SDS011;54465;51.230;22.504;2023-04-25T16:43:20;9.32;;;7.93;;
32946;SDS011;54465;51.230;22.504;2023-04-25T16:48:21;9.40;;;6.53;;
32946;SDS011;54465;51.230;22.504;2023-04-25T16:53:23;11.27;;;7.30;;
32946;SDS011;54465;51.230;22.504;2023-04-25T16:58:24;7.95;;;6.88;;
32946;SDS011;54465;51.230;22.504;2023-04-25T17:03:26;5.35;;;4.00;;
32946;SDS011;54465;51.230;22.504;2023-04-25T17:08:27;6.78;;;5.10;;
32946;SDS011;54465;51.230;22.504;2023-04-25T17:13:28;8.02;;;5.88;;
32946;SDS011;54465;51.230;22.504;2023-04-25T17:18:29;5.97;;;5.38;;
32946;SDS011;54465;51.230;22.504;2023-04-25T17:23:29;7.75;;;6.00;;
32946;SDS011;54465;51.230;22.504;2023-04-25T17:28:32;7.85;;;5.75;;
32946;SDS011;54465;51.230;22.504;2023-04-25T17:33:33;8.95;;;6.13;;
32946;SDS011;54465;51.230;22.504;2023-04-25T17:38:33;7.03;;;5.40;;
32946;SDS011;54465;51.230;22.504;2023-04-25T17:43:38;6.40;;;5.38;;
32946;SDS011;54465;51.230;22.504;2023-04-25T17:48:38;8.55;;;5.72;;
32946;SDS011;54465;51.230;22.504;2023-04-25T17:53:39;8.80;;;5.60;;
32946;SDS011;54465;51.230;22.504;2023-04-25T17:58:40;8.23;;;5.85;;
32946;SDS011;54465;51.230;22.504;2023-04-25T18:03:41;7.95;;;6.38;;
32946;SDS011;54465;51.230;22.504;2023-04-25T18:08:44;8.52;;;5.97;;
32946;SDS011;54465;51.230;22.504;2023-04-25T18:13:45;8.25;;;6.97;;
32946;SDS011;54465;51.230;22.504;2023-04-25T18:18:46;8.63;;;6.95;;
32946;SDS011;54465;51.230;22.504;2023-04-25T18:23:51;8.07;;;6.55;;
32946;SDS011;54465;51.230;22.504;2023-04-25T18:28:52;8.68;;;6.70;;
32946;SDS011;54465;51.230;22.504;2023-04-25T18:33:52;10.27;;;7.50;;
32946;SDS011;54465;51.230;22.504;2023-04-25T18:38:55;7.05;;;6.00;;
32946;SDS011;54465;51.230;22.504;2023-04-25T18:43:57;8.98;;;6.60;;
32946;SDS011;54465;51.230;22.504;2023-04-25T18:49:01;7.25;;;5.95;;
32946;SDS011;54465;51.230;22.504;2023-04-25T18:54:01;7.90;;;6.38;;
32946;SDS011;54465;51.230;22.504;2023-04-25T18:59:03;7.30;;;5.80;;
32946;SDS011;54465;51.230;22.504;2023-04-25T19:04:04;7.50;;;5.47;;
32946;SDS011;54465;51.230;22.504;2023-04-25T19:09:05;6.97;;;5.82;;
32946;SDS011;54465;51.230;22.504;2023-04-25T19:14:07;8.10;;;6.50;;
32946;SDS011;54465;51.230;22.504;2023-04-25T19:19:07;6.65;;;5.75;;
32946;SDS011;54465;51.230;22.504;2023-04-25T19:24:08;7.07;;;5.72;;
32946;SDS011;54465;51.230;22.504;2023-04-25T19:29:09;6.65;;;5.47;;
32946;SDS011;54465;51.230;22.504;2023-04-25T19:34:12;7.45;;;6.18;;
32946;SDS011;54465;51.230;22.504;2023-04-25T19:39:13;6.63;;;5.30;;
32946;SDS011;54465;51.230;22.504;2023-04-25T19:44:13;7.03;;;5.35;;
32946;SDS011;54465;51.230;22.504;2023-04-25T19:49:14;6.50;;;5.22;;
32946;SDS011;54465;51.230;22.504;2023-04-25T19:54:14;6.70;;;5.85;;
32946;SDS011;54465;51.230;22.504;2023-04-25T19:59:15;6.05;;;4.97;;
32946;SDS011;54465;51.230;22.504;2023-04-25T20:04:15;6.30;;;4.43;;
32946;SDS011;54465;51.230;22.504;2023-04-25T20:09:17;5.85;;;4.85;;
32946;SDS011;54465;51.230;22.504;2023-04-25T20:14:19;5.93;;;4.10;;
32946;SDS011;54465;51.230;22.504;2023-04-25T20:19:20;5.50;;;4.38;;
32946;SDS011;54465;51.230;22.504;2023-04-25T20:24:21;6.82;;;4.55;;
32946;SDS011;54465;51.230;22.504;2023-04-25T20:29:22;8.02;;;4.15;;
32946;SDS011;54465;51.230;22.504;2023-04-25T20:34:23;7.65;;;5.28;;
32946;SDS011;54465;51.230;22.504;2023-04-25T20:39:24;6.70;;;4.45;;
32946;SDS011;54465;51.230;22.504;2023-04-25T20:44:24;5.05;;;4.55;;
32946;SDS011;54465;51.230;22.504;2023-04-25T20:49:26;6.15;;;4.57;;
32946;SDS011;54465;51.230;22.504;2023-04-25T20:54:26;5.50;;;4.38;;
32946;SDS011;54465;51.230;22.504;2023-04-25T20:59:26;5.38;;;4.07;;
32946;SDS011;54465;51.230;22.504;2023-04-25T21:04:27;5.35;;;4.50;;
32946;SDS011;54465;51.230;22.504;2023-04-25T21:09:28;5.22;;;4.55;;
32946;SDS011;54465;51.230;22.504;2023-04-25T21:14:28;4.47;;;3.90;;
32946;SDS011;54465;51.230;22.504;2023-04-25T21:19:29;7.00;;;4.35;;
32946;SDS011;54465;51.230;22.504;2023-04-25T21:24:30;5.07;;;4.22;;
32946;SDS011;54465;51.230;22.504;2023-04-25T21:29:32;4.75;;;3.63;;
32946;SDS011;54465;51.230;22.504;2023-04-25T21:34:32;4.38;;;3.00;;
32946;SDS011;54465;51.230;22.504;2023-04-25T21:39:32;5.28;;;4.53;;
32946;SDS011;54465;51.230;22.504;2023-04-25T21:44:34;4.30;;;2.90;;
32946;SDS011;54465;51.230;22.504;2023-04-25T21:49:35;3.13;;;2.55;;
32946;SDS011;54465;51.230;22.504;2023-04-25T21:54:35;3.25;;;2.10;;
32946;SDS011;54465;51.230;22.504;2023-04-25T21:59:35;2.22;;;1.73;;
32946;SDS011;54465;51.230;22.504;2023-04-25T22:04:36;5.10;;;2.40;;
32946;SDS011;54465;51.230;22.504;2023-04-25T22:09:37;3.25;;;2.33;;
32946;SDS011;54465;51.230;22.504;2023-04-25T22:14:38;3.17;;;1.83;;
32946;SDS011;54465;51.230;22.504;2023-04-25T22:19:38;2.85;;;1.63;;
32946;SDS011;54465;51.230;22.504;2023-04-25T22:24:39;2.97;;;1.70;;
32946;SDS011;54465;51.230;22.504;2023-04-25T22:29:40;2.55;;;1.70;;
32946;SDS011;54465;51.230;22.504;2023-04-25T22:34:40;2.33;;;1.80;;
32946;SDS011;54465;51.230;22.504;2023-04-25T22:39:41;3.58;;;1.67;;
32946;SDS011;54465;51.230;22.504;2023-04-25T22:44:41;1.80;;;1.45;;
32946;SDS011;54465;51.230;22.504;2023-04-25T22:49:42;2.20;;;1.80;;
32946;SDS011;54465;51.230;22.504;2023-04-25T22:54:43;2.47;;;1.77;;
32946;SDS011;54465;51.230;22.504;2023-04-25T22:59:43;2.38;;;1.92;;
32946;SDS011;54465;51.230;22.504;2023-04-25T23:04:44;2.78;;;1.65;;
32946;SDS011;54465;51.230;22.504;2023-04-25T23:09:45;1.50;;;1.23;;
32946;SDS011;54465;51.230;22.504;2023-04-25T23:14:48;1.65;;;1.35;;
32946;SDS011;54465;51.230;22.504;2023-04-25T23:19:51;2.20;;;1.52;;
32946;SDS011;54465;51.230;22.504;2023-04-25T23:24:51;2.78;;;1.60;;
32946;SDS011;54465;51.230;22.504;2023-04-25T23:29:52;2.92;;;1.73;;
32946;SDS011;54465;51.230;22.504;2023-04-25T23:34:55;1.98;;;1.67;;
32946;SDS011;54465;51.230;22.504;2023-04-25T23:39:56;2.90;;;2.22;;
32946;SDS011;54465;51.230;22.504;2023-04-25T23:44:57;2.92;;;2.35;;
32946;SDS011;54465;51.230;22.504;2023-04-25T23:49:57;3.42;;;2.78;;
32946;SDS011;54465;51.230;22.504;2023-04-25T23:54:58;3.55;;;2.70;;
32946;SDS011;54465;51.230;22.504;2023-04-25T23:59:58;4.47;;;2.67;;
